sensor_id;sensor_type;location;lat;lon;timestamp;temperature;humidity
33865;DHT22;20159;51.072;13.526;2023-02-21T00:01:45;11.90;81.80
33865;DHT22;20159;51.072;13.526;2023-02-21T00:04:30;11.90;81.80
33865;DHT22;20159;51.072;13.526;2023-02-21T00:07:14;11.90;81.80
33865;DHT22;20159;51.072;13.526;2023-02-21T00:09:58;11.90;81.80
33865;DHT22;20159;51.072;13.526;2023-02-21T00:12:42;11.80;81.70
33865;DHT22;20159;51.072;13.526;2023-02-21T00:15:26;11.90;81.90
33865;DHT22;20159;51.072;13.526;2023-02-21T00:18:10;11.90;81.80
33865;DHT22;20159;51.072;13.526;2023-02-21T00:20:54;11.80;81.70
33865;DHT22;20159;51.072;13.526;2023-02-21T00:23:38;11.90;81.80
33865;DHT22;20159;51.072;13.526;2023-02-21T00:26:22;11.90;81.90
33865;DHT22;20159;51.072;13.526;2023-02-21T00:29:07;12.00;81.90
33865;DHT22;20159;51.072;13.526;2023-02-21T00:31:52;11.90;81.90
33865;DHT22;20159;51.072;13.526;2023-02-21T00:34:35;11.80;81.80
33865;DHT22;20159;51.072;13.526;2023-02-21T00:37:20;11.80;82.30
33865;DHT22;20159;51.072;13.526;2023-02-21T00:40:04;11.80;81.80
33865;DHT22;20159;51.072;13.526;2023-02-21T00:42:49;11.80;81.80
33865;DHT22;20159;51.072;13.526;2023-02-21T00:45:33;11.80;81.80
33865;DHT22;20159;51.072;13.526;2023-02-21T00:48:21;11.80;81.80
33865;DHT22;20159;51.072;13.526;2023-02-21T00:51:06;11.80;81.90
33865;DHT22;20159;51.072;13.526;2023-02-21T00:53:50;11.80;81.80
33865;DHT22;20159;51.072;13.526;2023-02-21T00:56:34;11.80;82.30
33865;DHT22;20159;51.072;13.526;2023-02-21T00:59:18;11.80;81.80
33865;DHT22;20159;51.072;13.526;2023-02-21T01:02:03;11.80;81.80
33865;DHT22;20159;51.072;13.526;2023-02-21T01:04:47;11.80;81.90
33865;DHT22;20159;51.072;13.526;2023-02-21T01:07:31;11.80;81.90
33865;DHT22;20159;51.072;13.526;2023-02-21T01:10:16;11.80;81.90
33865;DHT22;20159;51.072;13.526;2023-02-21T01:13:00;11.80;81.80
33865;DHT22;20159;51.072;13.526;2023-02-21T01:15:44;11.80;81.80
33865;DHT22;20159;51.072;13.526;2023-02-21T01:18:28;11.80;81.90
33865;DHT22;20159;51.072;13.526;2023-02-21T01:21:14;11.80;81.80
33865;DHT22;20159;51.072;13.526;2023-02-21T01:23:59;11.80;81.80
33865;DHT22;20159;51.072;13.526;2023-02-21T01:26:43;11.10;81.60
33865;DHT22;20159;51.072;13.526;2023-02-21T01:29:28;11.80;81.90
33865;DHT22;20159;51.072;13.526;2023-02-21T01:32:12;14.40;83.30
33865;DHT22;20159;51.072;13.526;2023-02-21T01:34:56;11.80;81.90
33865;DHT22;20159;51.072;13.526;2023-02-21T01:40:07;11.80;82.10
33865;DHT22;20159;51.072;13.526;2023-02-21T01:42:51;11.80;82.00
33865;DHT22;20159;51.072;13.526;2023-02-21T01:48:21;11.80;82.00
33865;DHT22;20159;51.072;13.526;2023-02-21T01:51:09;11.80;82.10
33865;DHT22;20159;51.072;13.526;2023-02-21T01:53:54;11.80;82.30
33865;DHT22;20159;51.072;13.526;2023-02-21T01:56:38;11.80;82.20
33865;DHT22;20159;51.072;13.526;2023-02-21T01:59:23;11.80;82.70
33865;DHT22;20159;51.072;13.526;2023-02-21T02:02:18;11.80;82.40
33865;DHT22;20159;51.072;13.526;2023-02-21T02:05:04;11.80;82.40
33865;DHT22;20159;51.072;13.526;2023-02-21T02:07:51;11.80;82.40
33865;DHT22;20159;51.072;13.526;2023-02-21T02:10:35;11.80;82.40
33865;DHT22;20159;51.072;13.526;2023-02-21T02:23:59;11.90;82.60
33865;DHT22;20159;51.072;13.526;2023-02-21T02:26:46;11.90;82.60
33865;DHT22;20159;51.072;13.526;2023-02-21T02:37:34;11.90;82.50
33865;DHT22;20159;51.072;13.526;2023-02-21T02:42:59;11.90;82.40
33865;DHT22;20159;51.072;13.526;2023-02-21T02:45:42;11.90;82.40
33865;DHT22;20159;51.072;13.526;2023-02-21T02:48:21;11.90;82.40
33865;DHT22;20159;51.072;13.526;2023-02-21T02:50:49;11.90;82.40
33865;DHT22;20159;51.072;13.526;2023-02-21T02:53:19;12.00;82.50
33865;DHT22;20159;51.072;13.526;2023-02-21T02:55:50;11.90;82.40
33865;DHT22;20159;51.072;13.526;2023-02-21T02:58:18;11.90;82.40
33865;DHT22;20159;51.072;13.526;2023-02-21T03:01:39;11.90;82.50
33865;DHT22;20159;51.072;13.526;2023-02-21T03:06:53;12.00;82.70
33865;DHT22;20159;51.072;13.526;2023-02-21T03:12:24;11.90;82.70
33865;DHT22;20159;51.072;13.526;2023-02-21T03:15:14;12.00;83.00
33865;DHT22;20159;51.072;13.526;2023-02-21T03:17:45;12.00;82.90
33865;DHT22;20159;51.072;13.526;2023-02-21T03:20:14;12.00;82.90
33865;DHT22;20159;51.072;13.526;2023-02-21T03:22:42;12.00;82.90
33865;DHT22;20159;51.072;13.526;2023-02-21T03:25:10;11.90;82.90
33865;DHT22;20159;51.072;13.526;2023-02-21T03:27:37;12.00;83.00
33865;DHT22;20159;51.072;13.526;2023-02-21T03:30:04;12.00;83.00
33865;DHT22;20159;51.072;13.526;2023-02-21T03:32:35;9.90;82.00
33865;DHT22;20159;51.072;13.526;2023-02-21T03:35:01;12.00;83.20
33865;DHT22;20159;51.072;13.526;2023-02-21T03:37:40;12.00;83.10
33865;DHT22;20159;51.072;13.526;2023-02-21T03:40:26;12.00;83.20
33865;DHT22;20159;51.072;13.526;2023-02-21T03:42:54;12.00;83.20
33865;DHT22;20159;51.072;13.526;2023-02-21T03:45:20;12.00;83.20
33865;DHT22;20159;51.072;13.526;2023-02-21T03:47:45;12.00;83.20
33865;DHT22;20159;51.072;13.526;2023-02-21T03:50:11;11.90;83.20
33865;DHT22;20159;51.072;13.526;2023-02-21T03:52:36;11.90;83.20
33865;DHT22;20159;51.072;13.526;2023-02-21T03:55:03;11.70;83.70
33865;DHT22;20159;51.072;13.526;2023-02-21T03:57:28;11.90;83.50
33865;DHT22;20159;51.072;13.526;2023-02-21T03:59:54;11.90;83.60
33865;DHT22;20159;51.072;13.526;2023-02-21T04:02:20;11.90;83.70
33865;DHT22;20159;51.072;13.526;2023-02-21T04:04:45;11.90;83.90
33865;DHT22;20159;51.072;13.526;2023-02-21T04:07:13;11.90;83.80
33865;DHT22;20159;51.072;13.526;2023-02-21T04:09:39;11.90;84.00
33865;DHT22;20159;51.072;13.526;2023-02-21T04:12:06;11.90;84.00
33865;DHT22;20159;51.072;13.526;2023-02-21T04:14:31;11.90;84.10
33865;DHT22;20159;51.072;13.526;2023-02-21T04:16:57;11.90;84.20
33865;DHT22;20159;51.072;13.526;2023-02-21T04:19:23;11.90;84.30
33865;DHT22;20159;51.072;13.526;2023-02-21T04:21:48;11.90;84.40
33865;DHT22;20159;51.072;13.526;2023-02-21T04:24:14;12.00;84.40
33865;DHT22;20159;51.072;13.526;2023-02-21T04:26:39;11.90;84.40
33865;DHT22;20159;51.072;13.526;2023-02-21T04:29:05;12.00;84.50
33865;DHT22;20159;51.072;13.526;2023-02-21T04:31:31;12.00;84.80
33865;DHT22;20159;51.072;13.526;2023-02-21T04:33:57;12.00;84.60
33865;DHT22;20159;51.072;13.526;2023-02-21T04:36:23;12.00;84.60
33865;DHT22;20159;51.072;13.526;2023-02-21T04:38:49;12.00;84.70
33865;DHT22;20159;51.072;13.526;2023-02-21T04:41:15;12.00;84.80
33865;DHT22;20159;51.072;13.526;2023-02-21T04:43:42;12.00;84.80
33865;DHT22;20159;51.072;13.526;2023-02-21T04:46:08;12.00;84.80
33865;DHT22;20159;51.072;13.526;2023-02-21T04:48:33;12.00;84.80
33865;DHT22;20159;51.072;13.526;2023-02-21T04:50:59;12.00;84.90
33865;DHT22;20159;51.072;13.526;2023-02-21T04:53:24;12.10;85.00
33865;DHT22;20159;51.072;13.526;2023-02-21T04:55:50;12.10;85.00
33865;DHT22;20159;51.072;13.526;2023-02-21T04:58:16;12.10;85.10
33865;DHT22;20159;51.072;13.526;2023-02-21T05:00:41;12.20;85.10
33865;DHT22;20159;51.072;13.526;2023-02-21T05:03:07;12.10;85.10
33865;DHT22;20159;51.072;13.526;2023-02-21T05:05:32;12.10;85.10
33865;DHT22;20159;51.072;13.526;2023-02-21T05:07:58;12.10;85.10
33865;DHT22;20159;51.072;13.526;2023-02-21T05:10:23;12.10;85.10
33865;DHT22;20159;51.072;13.526;2023-02-21T05:12:49;12.10;85.10
33865;DHT22;20159;51.072;13.526;2023-02-21T05:15:14;12.10;85.10
33865;DHT22;20159;51.072;13.526;2023-02-21T05:17:40;12.10;85.10
33865;DHT22;20159;51.072;13.526;2023-02-21T05:20:06;12.20;85.10
33865;DHT22;20159;51.072;13.526;2023-02-21T05:22:39;12.20;85.10
33865;DHT22;20159;51.072;13.526;2023-02-21T05:25:14;12.20;85.10
33865;DHT22;20159;51.072;13.526;2023-02-21T05:27:40;12.20;85.10
33865;DHT22;20159;51.072;13.526;2023-02-21T05:30:06;12.20;85.00
33865;DHT22;20159;51.072;13.526;2023-02-21T05:32:32;12.20;85.00
33865;DHT22;20159;51.072;13.526;2023-02-21T05:34:57;12.20;85.00
33865;DHT22;20159;51.072;13.526;2023-02-21T05:37:23;12.20;85.00
33865;DHT22;20159;51.072;13.526;2023-02-21T05:39:48;12.20;84.90
33865;DHT22;20159;51.072;13.526;2023-02-21T05:42:14;12.20;85.00
33865;DHT22;20159;51.072;13.526;2023-02-21T05:44:42;12.20;84.90
33865;DHT22;20159;51.072;13.526;2023-02-21T05:47:07;12.20;85.00
33865;DHT22;20159;51.072;13.526;2023-02-21T05:49:33;12.20;85.10
33865;DHT22;20159;51.072;13.526;2023-02-21T05:51:59;12.10;85.10
33865;DHT22;20159;51.072;13.526;2023-02-21T05:54:24;12.20;85.10
33865;DHT22;20159;51.072;13.526;2023-02-21T05:56:50;12.20;85.20
33865;DHT22;20159;51.072;13.526;2023-02-21T05:59:18;12.10;85.10
33865;DHT22;20159;51.072;13.526;2023-02-21T06:01:45;12.20;85.30
33865;DHT22;20159;51.072;13.526;2023-02-21T06:04:10;12.20;85.30
33865;DHT22;20159;51.072;13.526;2023-02-21T06:06:36;12.20;85.20
33865;DHT22;20159;51.072;13.526;2023-02-21T06:09:03;12.20;85.30
33865;DHT22;20159;51.072;13.526;2023-02-21T06:11:31;12.20;85.20
33865;DHT22;20159;51.072;13.526;2023-02-21T06:13:59;12.20;85.20
33865;DHT22;20159;51.072;13.526;2023-02-21T06:16:26;12.20;85.20
33865;DHT22;20159;51.072;13.526;2023-02-21T06:18:55;12.10;85.20
33865;DHT22;20159;51.072;13.526;2023-02-21T06:21:21;12.20;85.20
33865;DHT22;20159;51.072;13.526;2023-02-21T06:23:47;12.20;85.20
33865;DHT22;20159;51.072;13.526;2023-02-21T06:26:13;12.20;85.20
33865;DHT22;20159;51.072;13.526;2023-02-21T06:28:38;12.20;85.20
33865;DHT22;20159;51.072;13.526;2023-02-21T06:31:04;12.20;85.10
33865;DHT22;20159;51.072;13.526;2023-02-21T06:33:30;12.20;85.10
33865;DHT22;20159;51.072;13.526;2023-02-21T06:35:56;12.20;85.10
33865;DHT22;20159;51.072;13.526;2023-02-21T06:38:22;12.20;85.10
33865;DHT22;20159;51.072;13.526;2023-02-21T06:40:47;12.30;85.10
33865;DHT22;20159;51.072;13.526;2023-02-21T06:43:13;12.30;85.10
33865;DHT22;20159;51.072;13.526;2023-02-21T06:45:38;12.30;85.00
33865;DHT22;20159;51.072;13.526;2023-02-21T06:48:04;12.30;85.10
33865;DHT22;20159;51.072;13.526;2023-02-21T06:50:29;12.30;85.00
33865;DHT22;20159;51.072;13.526;2023-02-21T06:52:55;12.40;85.10
33865;DHT22;20159;51.072;13.526;2023-02-21T06:55:21;12.30;85.10
33865;DHT22;20159;51.072;13.526;2023-02-21T06:57:48;12.30;85.10
33865;DHT22;20159;51.072;13.526;2023-02-21T07:00:15;12.40;85.10
33865;DHT22;20159;51.072;13.526;2023-02-21T07:02:41;12.40;85.10
33865;DHT22;20159;51.072;13.526;2023-02-21T07:05:06;12.40;85.10
33865;DHT22;20159;51.072;13.526;2023-02-21T07:07:32;12.40;85.20
33865;DHT22;20159;51.072;13.526;2023-02-21T07:09:57;12.50;85.10
33865;DHT22;20159;51.072;13.526;2023-02-21T07:12:23;12.10;84.80
33865;DHT22;20159;51.072;13.526;2023-02-21T07:14:48;12.50;84.90
33865;DHT22;20159;51.072;13.526;2023-02-21T07:17:14;12.50;84.90
33865;DHT22;20159;51.072;13.526;2023-02-21T07:19:39;12.50;84.80
33865;DHT22;20159;51.072;13.526;2023-02-21T07:22:06;12.60;84.70
33865;DHT22;20159;51.072;13.526;2023-02-21T07:24:33;12.60;84.70
33865;DHT22;20159;51.072;13.526;2023-02-21T07:26:59;12.60;84.60
33865;DHT22;20159;51.072;13.526;2023-02-21T07:29:25;12.60;84.50
33865;DHT22;20159;51.072;13.526;2023-02-21T07:31:57;12.60;84.00
33865;DHT22;20159;51.072;13.526;2023-02-21T07:34:22;12.70;84.40
33865;DHT22;20159;51.072;13.526;2023-02-21T07:36:49;12.70;84.40
33865;DHT22;20159;51.072;13.526;2023-02-21T07:39:14;10.10;83.00
33865;DHT22;20159;51.072;13.526;2023-02-21T07:41:40;12.70;84.30
33865;DHT22;20159;51.072;13.526;2023-02-21T07:44:05;12.70;84.30
33865;DHT22;20159;51.072;13.526;2023-02-21T07:46:32;12.70;84.30
33865;DHT22;20159;51.072;13.526;2023-02-21T07:48:59;12.70;84.20
33865;DHT22;20159;51.072;13.526;2023-02-21T07:51:30;12.80;84.20
33865;DHT22;20159;51.072;13.526;2023-02-21T07:53:56;12.70;84.20
33865;DHT22;20159;51.072;13.526;2023-02-21T07:56:22;12.80;84.10
33865;DHT22;20159;51.072;13.526;2023-02-21T07:58:48;12.80;84.00
33865;DHT22;20159;51.072;13.526;2023-02-21T08:01:14;12.80;84.10
33865;DHT22;20159;51.072;13.526;2023-02-21T08:03:40;12.80;84.00
33865;DHT22;20159;51.072;13.526;2023-02-21T08:06:07;12.80;84.00
33865;DHT22;20159;51.072;13.526;2023-02-21T08:08:33;12.80;84.00
33865;DHT22;20159;51.072;13.526;2023-02-21T08:10:58;12.90;84.10
33865;DHT22;20159;51.072;13.526;2023-02-21T08:13:24;12.80;84.10
33865;DHT22;20159;51.072;13.526;2023-02-21T08:15:49;12.80;84.00
33865;DHT22;20159;51.072;13.526;2023-02-21T08:18:17;12.90;84.00
33865;DHT22;20159;51.072;13.526;2023-02-21T08:20:45;12.80;84.00
33865;DHT22;20159;51.072;13.526;2023-02-21T08:23:10;12.80;84.10
33865;DHT22;20159;51.072;13.526;2023-02-21T08:25:36;12.80;84.10
33865;DHT22;20159;51.072;13.526;2023-02-21T08:28:01;12.80;84.20
33865;DHT22;20159;51.072;13.526;2023-02-21T08:30:27;12.80;84.30
33865;DHT22;20159;51.072;13.526;2023-02-21T08:32:52;12.80;84.20
33865;DHT22;20159;51.072;13.526;2023-02-21T08:35:19;12.90;84.20
33865;DHT22;20159;51.072;13.526;2023-02-21T08:37:49;12.90;84.20
33865;DHT22;20159;51.072;13.526;2023-02-21T08:40:18;12.90;84.30
33865;DHT22;20159;51.072;13.526;2023-02-21T08:42:48;12.90;84.30
33865;DHT22;20159;51.072;13.526;2023-02-21T08:45:16;12.90;84.30
33865;DHT22;20159;51.072;13.526;2023-02-21T08:47:42;13.00;84.10
33865;DHT22;20159;51.072;13.526;2023-02-21T08:50:08;13.00;84.10
33865;DHT22;20159;51.072;13.526;2023-02-21T08:52:34;13.00;83.90
33865;DHT22;20159;51.072;13.526;2023-02-21T08:54:59;13.10;84.00
33865;DHT22;20159;51.072;13.526;2023-02-21T08:57:25;13.10;83.80
33865;DHT22;20159;51.072;13.526;2023-02-21T08:59:50;13.10;83.70
33865;DHT22;20159;51.072;13.526;2023-02-21T09:02:17;13.10;83.70
33865;DHT22;20159;51.072;13.526;2023-02-21T09:04:44;13.20;83.60
33865;DHT22;20159;51.072;13.526;2023-02-21T09:07:14;13.20;83.50
33865;DHT22;20159;51.072;13.526;2023-02-21T09:09:40;13.30;83.50
33865;DHT22;20159;51.072;13.526;2023-02-21T09:12:07;13.30;83.40
33865;DHT22;20159;51.072;13.526;2023-02-21T09:14:34;13.30;83.30
33865;DHT22;20159;51.072;13.526;2023-02-21T09:17:00;13.40;83.20
33865;DHT22;20159;51.072;13.526;2023-02-21T09:19:25;13.40;82.90
33865;DHT22;20159;51.072;13.526;2023-02-21T09:21:51;13.50;82.90
33865;DHT22;20159;51.072;13.526;2023-02-21T09:24:20;13.50;82.70
33865;DHT22;20159;51.072;13.526;2023-02-21T09:26:53;13.50;82.80
33865;DHT22;20159;51.072;13.526;2023-02-21T09:29:20;13.50;82.70
33865;DHT22;20159;51.072;13.526;2023-02-21T09:31:45;13.50;82.50
33865;DHT22;20159;51.072;13.526;2023-02-21T09:34:11;13.60;82.70
33865;DHT22;20159;51.072;13.526;2023-02-21T09:36:36;13.60;82.80
33865;DHT22;20159;51.072;13.526;2023-02-21T09:39:03;13.60;82.80
33865;DHT22;20159;51.072;13.526;2023-02-21T09:41:31;13.60;82.90
33865;DHT22;20159;51.072;13.526;2023-02-21T09:43:57;13.80;82.80
33865;DHT22;20159;51.072;13.526;2023-02-21T09:46:45;13.80;82.60
33865;DHT22;20159;51.072;13.526;2023-02-21T09:49:27;13.90;82.30
33865;DHT22;20159;51.072;13.526;2023-02-21T09:51:54;14.00;81.60
33865;DHT22;20159;51.072;13.526;2023-02-21T09:54:35;14.00;81.80
33865;DHT22;20159;51.072;13.526;2023-02-21T09:57:04;14.00;81.10
33865;DHT22;20159;51.072;13.526;2023-02-21T09:59:30;14.10;81.40
33865;DHT22;20159;51.072;13.526;2023-02-21T10:02:22;14.10;81.30
33865;DHT22;20159;51.072;13.526;2023-02-21T10:05:15;14.10;80.90
33865;DHT22;20159;51.072;13.526;2023-02-21T10:08:00;14.10;80.70
33865;DHT22;20159;51.072;13.526;2023-02-21T10:10:44;14.10;80.70
33865;DHT22;20159;51.072;13.526;2023-02-21T10:16:04;14.10;80.60
33865;DHT22;20159;51.072;13.526;2023-02-21T10:18:43;14.10;80.40
33865;DHT22;20159;51.072;13.526;2023-02-21T10:21:35;14.10;80.50
33865;DHT22;20159;51.072;13.526;2023-02-21T10:24:08;14.20;80.30
33865;DHT22;20159;51.072;13.526;2023-02-21T10:26:37;14.20;80.50
33865;DHT22;20159;51.072;13.526;2023-02-21T10:29:22;14.30;80.10
33865;DHT22;20159;51.072;13.526;2023-02-21T10:31:53;14.30;79.70
33865;DHT22;20159;51.072;13.526;2023-02-21T10:34:26;14.30;80.00
33865;DHT22;20159;51.072;13.526;2023-02-21T10:36:56;14.30;79.80
33865;DHT22;20159;51.072;13.526;2023-02-21T10:39:43;14.30;79.40
33865;DHT22;20159;51.072;13.526;2023-02-21T10:42:23;14.40;79.30
33865;DHT22;20159;51.072;13.526;2023-02-21T10:44:50;14.40;79.50
33865;DHT22;20159;51.072;13.526;2023-02-21T10:47:25;14.40;79.50
33865;DHT22;20159;51.072;13.526;2023-02-21T10:52:26;12.60;78.20
33865;DHT22;20159;51.072;13.526;2023-02-21T10:55:03;14.40;79.30
33865;DHT22;20159;51.072;13.526;2023-02-21T10:57:31;14.40;79.20
33865;DHT22;20159;51.072;13.526;2023-02-21T10:59:58;14.40;79.50
33865;DHT22;20159;51.072;13.526;2023-02-21T11:02:32;14.40;79.60
33865;DHT22;20159;51.072;13.526;2023-02-21T11:05:16;14.30;79.40
33865;DHT22;20159;51.072;13.526;2023-02-21T11:08:00;14.40;79.20
33865;DHT22;20159;51.072;13.526;2023-02-21T11:10:40;14.40;79.00
33865;DHT22;20159;51.072;13.526;2023-02-21T11:13:19;14.40;79.00
33865;DHT22;20159;51.072;13.526;2023-02-21T11:15:45;14.40;79.10
33865;DHT22;20159;51.072;13.526;2023-02-21T11:18:24;14.40;79.10
33865;DHT22;20159;51.072;13.526;2023-02-21T11:20:51;14.40;79.10
33865;DHT22;20159;51.072;13.526;2023-02-21T11:23:27;14.40;79.50
33865;DHT22;20159;51.072;13.526;2023-02-21T11:26:09;14.40;79.30
33865;DHT22;20159;51.072;13.526;2023-02-21T11:28:41;14.50;78.80
33865;DHT22;20159;51.072;13.526;2023-02-21T11:34:09;14.60;78.90
33865;DHT22;20159;51.072;13.526;2023-02-21T11:36:45;14.50;78.50
33865;DHT22;20159;51.072;13.526;2023-02-21T11:39:24;12.80;77.40
33865;DHT22;20159;51.072;13.526;2023-02-21T11:41:57;14.50;78.20
33865;DHT22;20159;51.072;13.526;2023-02-21T11:44:38;14.50;78.30
33865;DHT22;20159;51.072;13.526;2023-02-21T11:47:15;14.40;78.40
33865;DHT22;20159;51.072;13.526;2023-02-21T11:50:01;14.40;78.70
33865;DHT22;20159;51.072;13.526;2023-02-21T11:52:39;14.40;78.70
33865;DHT22;20159;51.072;13.526;2023-02-21T11:55:13;14.40;78.80
33865;DHT22;20159;51.072;13.526;2023-02-21T11:57:53;14.30;79.10
33865;DHT22;20159;51.072;13.526;2023-02-21T12:06:37;14.30;79.00
33865;DHT22;20159;51.072;13.526;2023-02-21T12:09:14;14.30;79.30
33865;DHT22;20159;51.072;13.526;2023-02-21T12:15:14;14.20;79.40
33865;DHT22;20159;51.072;13.526;2023-02-21T12:20:33;14.20;79.60
33865;DHT22;20159;51.072;13.526;2023-02-21T12:26:00;14.20;80.00
33865;DHT22;20159;51.072;13.526;2023-02-21T12:28:47;14.10;79.50
33865;DHT22;20159;51.072;13.526;2023-02-21T12:31:32;14.10;79.40
33865;DHT22;20159;51.072;13.526;2023-02-21T12:37:31;14.10;79.60
33865;DHT22;20159;51.072;13.526;2023-02-21T12:40:19;14.10;79.70
33865;DHT22;20159;51.072;13.526;2023-02-21T12:46:00;14.10;79.60
33865;DHT22;20159;51.072;13.526;2023-02-21T12:48:35;14.20;79.60
33865;DHT22;20159;51.072;13.526;2023-02-21T12:51:06;13.40;79.50
33865;DHT22;20159;51.072;13.526;2023-02-21T12:53:51;14.20;79.80
33865;DHT22;20159;51.072;13.526;2023-02-21T12:56:28;14.30;79.70
33865;DHT22;20159;51.072;13.526;2023-02-21T13:01:51;14.30;79.00
33865;DHT22;20159;51.072;13.526;2023-02-21T13:04:40;14.30;79.20
33865;DHT22;20159;51.072;13.526;2023-02-21T13:13:06;14.40;79.20
33865;DHT22;20159;51.072;13.526;2023-02-21T13:15:34;14.30;79.80
33865;DHT22;20159;51.072;13.526;2023-02-21T13:18:06;14.40;79.30
33865;DHT22;20159;51.072;13.526;2023-02-21T13:20:39;14.40;79.00
33865;DHT22;20159;51.072;13.526;2023-02-21T13:23:06;14.40;79.00
33865;DHT22;20159;51.072;13.526;2023-02-21T13:25:55;14.40;79.00
33865;DHT22;20159;51.072;13.526;2023-02-21T13:28:27;14.40;78.70
33865;DHT22;20159;51.072;13.526;2023-02-21T13:30:59;14.40;78.90
33865;DHT22;20159;51.072;13.526;2023-02-21T13:33:42;14.40;78.90
33865;DHT22;20159;51.072;13.526;2023-02-21T13:36:29;14.40;78.80
33865;DHT22;20159;51.072;13.526;2023-02-21T13:41:39;14.40;78.70
33865;DHT22;20159;51.072;13.526;2023-02-21T13:44:08;14.40;78.80
33865;DHT22;20159;51.072;13.526;2023-02-21T13:49:39;14.30;78.80
33865;DHT22;20159;51.072;13.526;2023-02-21T13:55:19;14.20;78.80
33865;DHT22;20159;51.072;13.526;2023-02-21T14:10:52;14.00;79.60
33865;DHT22;20159;51.072;13.526;2023-02-21T14:13:23;13.90;79.90
33865;DHT22;20159;51.072;13.526;2023-02-21T14:16:17;13.90;80.00
33865;DHT22;20159;51.072;13.526;2023-02-21T14:24:14;13.80;80.20
33865;DHT22;20159;51.072;13.526;2023-02-21T14:32:14;13.80;80.50
33865;DHT22;20159;51.072;13.526;2023-02-21T14:39:47;13.80;80.70
33865;DHT22;20159;51.072;13.526;2023-02-21T14:42:30;13.80;80.60
33865;DHT22;20159;51.072;13.526;2023-02-21T14:53:16;13.80;80.70
33865;DHT22;20159;51.072;13.526;2023-02-21T14:58:54;13.80;80.70
33865;DHT22;20159;51.072;13.526;2023-02-21T15:01:43;13.80;80.70
33865;DHT22;20159;51.072;13.526;2023-02-21T15:04:13;13.80;80.80
33865;DHT22;20159;51.072;13.526;2023-02-21T15:06:44;13.80;80.60
33865;DHT22;20159;51.072;13.526;2023-02-21T15:09:18;13.80;80.70
33865;DHT22;20159;51.072;13.526;2023-02-21T15:11:45;13.80;80.80
33865;DHT22;20159;51.072;13.526;2023-02-21T15:14:20;13.70;80.70
33865;DHT22;20159;51.072;13.526;2023-02-21T15:17:01;13.80;80.80
33865;DHT22;20159;51.072;13.526;2023-02-21T15:19:34;13.70;80.90
33865;DHT22;20159;51.072;13.526;2023-02-21T15:27:32;13.70;81.00
33865;DHT22;20159;51.072;13.526;2023-02-21T15:30:05;13.70;81.00
33865;DHT22;20159;51.072;13.526;2023-02-21T15:32:33;13.70;81.20
33865;DHT22;20159;51.072;13.526;2023-02-21T15:34:59;13.70;81.10
33865;DHT22;20159;51.072;13.526;2023-02-21T15:37:28;13.70;81.10
33865;DHT22;20159;51.072;13.526;2023-02-21T15:39:58;13.70;81.30
33865;DHT22;20159;51.072;13.526;2023-02-21T15:42:26;13.70;81.10
33865;DHT22;20159;51.072;13.526;2023-02-21T15:45:04;15.90;82.20
33865;DHT22;20159;51.072;13.526;2023-02-21T15:47:32;13.50;80.90
33865;DHT22;20159;51.072;13.526;2023-02-21T15:52:43;13.70;81.20
33865;DHT22;20159;51.072;13.526;2023-02-21T15:57:46;13.60;81.30
33865;DHT22;20159;51.072;13.526;2023-02-21T16:00:43;13.60;81.20
33865;DHT22;20159;51.072;13.526;2023-02-21T16:03:42;13.60;81.30
33865;DHT22;20159;51.072;13.526;2023-02-21T16:06:20;13.60;81.30
33865;DHT22;20159;51.072;13.526;2023-02-21T16:09:06;13.60;81.40
33865;DHT22;20159;51.072;13.526;2023-02-21T16:11:49;12.70;81.10
33865;DHT22;20159;51.072;13.526;2023-02-21T16:14:28;13.50;81.50
33865;DHT22;20159;51.072;13.526;2023-02-21T16:17:29;13.50;81.50
33865;DHT22;20159;51.072;13.526;2023-02-21T16:19:59;13.50;81.70
33865;DHT22;20159;51.072;13.526;2023-02-21T16:22:36;13.50;81.60
33865;DHT22;20159;51.072;13.526;2023-02-21T16:27:49;13.40;81.80
33865;DHT22;20159;51.072;13.526;2023-02-21T16:30:26;13.40;81.90
33865;DHT22;20159;51.072;13.526;2023-02-21T16:32:57;13.40;82.00
33865;DHT22;20159;51.072;13.526;2023-02-21T16:35:24;13.40;81.90
33865;DHT22;20159;51.072;13.526;2023-02-21T16:37:54;13.40;81.90
33865;DHT22;20159;51.072;13.526;2023-02-21T16:40:22;13.40;81.90
33865;DHT22;20159;51.072;13.526;2023-02-21T16:42:50;13.40;81.90
33865;DHT22;20159;51.072;13.526;2023-02-21T16:45:17;13.30;82.00
33865;DHT22;20159;51.072;13.526;2023-02-21T16:47:43;13.30;82.00
33865;DHT22;20159;51.072;13.526;2023-02-21T16:50:20;13.30;82.00
33865;DHT22;20159;51.072;13.526;2023-02-21T16:52:46;13.30;82.00
33865;DHT22;20159;51.072;13.526;2023-02-21T16:55:16;13.30;82.00
33865;DHT22;20159;51.072;13.526;2023-02-21T16:57:44;13.30;82.00
33865;DHT22;20159;51.072;13.526;2023-02-21T17:00:10;13.30;82.00
33865;DHT22;20159;51.072;13.526;2023-02-21T17:02:36;13.30;82.00
33865;DHT22;20159;51.072;13.526;2023-02-21T17:05:02;13.30;82.00
33865;DHT22;20159;51.072;13.526;2023-02-21T17:07:27;13.30;82.00
33865;DHT22;20159;51.072;13.526;2023-02-21T17:09:53;13.30;82.00
33865;DHT22;20159;51.072;13.526;2023-02-21T17:12:18;13.20;82.00
33865;DHT22;20159;51.072;13.526;2023-02-21T17:14:44;13.20;81.80
33865;DHT22;20159;51.072;13.526;2023-02-21T17:17:09;13.20;82.00
33865;DHT22;20159;51.072;13.526;2023-02-21T17:19:35;13.20;81.80
33865;DHT22;20159;51.072;13.526;2023-02-21T17:22:00;13.10;81.80
33865;DHT22;20159;51.072;13.526;2023-02-21T17:24:26;13.10;81.80
33865;DHT22;20159;51.072;13.526;2023-02-21T17:26:52;13.10;81.90
33865;DHT22;20159;51.072;13.526;2023-02-21T17:29:18;13.10;82.10
33865;DHT22;20159;51.072;13.526;2023-02-21T17:31:43;13.10;82.10
33865;DHT22;20159;51.072;13.526;2023-02-21T17:34:11;13.10;82.10
33865;DHT22;20159;51.072;13.526;2023-02-21T17:36:37;13.00;82.10
33865;DHT22;20159;51.072;13.526;2023-02-21T17:39:03;13.00;82.10
33865;DHT22;20159;51.072;13.526;2023-02-21T17:41:28;13.00;82.30
33865;DHT22;20159;51.072;13.526;2023-02-21T17:43:54;13.00;82.30
33865;DHT22;20159;51.072;13.526;2023-02-21T17:46:20;13.00;82.30
33865;DHT22;20159;51.072;13.526;2023-02-21T17:48:45;13.00;82.30
33865;DHT22;20159;51.072;13.526;2023-02-21T17:51:20;13.00;82.20
33865;DHT22;20159;51.072;13.526;2023-02-21T17:53:46;12.90;82.00
33865;DHT22;20159;51.072;13.526;2023-02-21T17:56:15;13.00;82.00
33865;DHT22;20159;51.072;13.526;2023-02-21T17:58:41;12.90;81.80
33865;DHT22;20159;51.072;13.526;2023-02-21T18:01:07;12.90;81.90